Time;durP1;ratioP1;P1;durP2;ratioP2;P2;SDS_P1;SDS_P2;PMS_P1;PMS_P2;Temp;Humidity;BMP_temperature;BMP_pressure;BME280_temperature;BME280_humidity;BME280_pressure;Samples;Min_cycle;Max_cycle;Signal;HPM_P1;HPM_P2
2022/03/16 00:02:01;;;;;;;30.27;18.63;;;;;;;7.32;87.35;102424.84;10403678;28;20029;-76
2022/03/16 00:07:02;;;;;;;22.92;17.10;;;;;;;7.23;87.04;102417.59;10419817;28;20033;-76
2022/03/16 00:12:02;;;;;;;32.90;19.40;;;;;;;7.10;85.91;102428.59;10419805;28;20116;-76
2022/03/16 00:17:03;;;;;;;27.23;19.45;;;;;;;6.97;84.70;102426.16;10421317;28;20051;-76
2022/03/16 00:22:04;;;;;;;32.33;19.23;;;;;;;6.94;85.30;102434.50;10425558;28;20402;-76
2022/03/16 00:27:04;;;;;;;28.42;19.38;;;;;;;6.86;85.35;102420.00;10422765;28;20104;-76
2022/03/16 00:32:05;;;;;;;27.98;19.15;;;;;;;6.80;85.58;102434.03;10420291;28;20528;-76
2022/03/16 00:37:05;;;;;;;21.27;16.25;;;;;;;6.67;85.44;102429.72;10421491;28;20030;-76
2022/03/16 00:42:06;;;;;;;22.95;17.77;;;;;;;6.65;85.16;102425.47;10422664;28;20057;-76
2022/03/16 00:47:07;;;;;;;25.55;16.83;;;;;;;6.67;87.16;102424.34;10423966;28;20041;-76
2022/03/16 00:52:08;;;;;;;22.20;16.35;;;;;;;6.72;86.73;102427.47;10422084;28;20038;-75
2022/03/16 00:57:08;;;;;;;24.75;14.80;;;;;;;6.64;85.25;102419.22;10421475;28;20026;-76
2022/03/16 01:02:09;;;;;;;21.42;15.13;;;;;;;6.56;85.10;102419.03;10417713;28;20037;-76
2022/03/16 01:07:09;;;;;;;22.20;16.70;;;;;;;6.47;84.97;102420.69;10399840;28;20417;-76
2022/03/16 01:12:10;;;;;;;28.10;16.88;;;;;;;6.36;84.96;102404.63;10416307;28;20072;-76
2022/03/16 01:17:10;;;;;;;32.10;17.00;;;;;;;6.24;85.64;102408.38;10415852;28;20087;-75
2022/03/16 01:22:11;;;;;;;28.85;18.38;;;;;;;6.12;86.42;102412.97;10416669;28;20037;-75
2022/03/16 01:27:11;;;;;;;30.27;18.90;;;;;;;6.10;86.79;102401.50;10417635;28;20457;-76
2022/03/16 01:32:11;;;;;;;28.02;20.27;;;;;;;6.05;85.45;102411.78;10417035;28;20040;-75
2022/03/16 01:37:12;;;;;;;29.25;20.15;;;;;;;6.01;85.49;102403.13;10416069;28;20060;-76
2022/03/16 01:42:12;;;;;;;31.48;21.25;;;;;;;5.89;90.09;102404.13;10417937;28;20143;-75
2022/03/16 01:47:13;;;;;;;28.60;21.00;;;;;;;5.90;94.72;102388.84;10415948;28;20128;-75
2022/03/16 01:52:27;;;;;;;33.55;21.13;;;;;;;5.99;93.29;102398.88;10416224;28;20037;-75
2022/03/16 01:57:27;;;;;;;32.42;20.98;;;;;;;5.95;94.25;102392.91;10417120;28;20034;-76
2022/03/16 02:02:27;;;;;;;40.72;21.13;;;;;;;5.92;92.99;102389.59;10415459;28;20061;-76
2022/03/16 02:07:28;;;;;;;26.95;19.33;;;;;;;5.88;95.99;102386.31;10415775;28;20084;-75
2022/03/16 02:12:28;;;;;;;38.22;21.55;;;;;;;5.93;95.70;102378.72;10416584;28;20041;-75
2022/03/16 02:17:29;;;;;;;36.10;20.95;;;;;;;5.79;95.70;102365.59;10417810;28;20392;-74
2022/03/16 02:22:29;;;;;;;34.63;20.50;;;;;;;5.60;94.67;102367.13;10423953;28;20116;-75
2022/03/16 02:27:29;;;;;;;32.15;19.58;;;;;;;5.42;96.96;102362.44;10423435;28;20033;-75
2022/03/16 02:32:30;;;;;;;27.20;20.88;;;;;;;5.35;98.87;102362.94;10406673;28;20038;-75
2022/03/16 02:37:30;;;;;;;31.00;21.25;;;;;;;5.25;99.27;102370.06;10407126;28;20030;-75
2022/03/16 02:42:31;;;;;;;29.77;21.38;;;;;;;5.25;98.79;102378.13;10423614;28;20077;-75
2022/03/16 02:47:31;;;;;;;33.25;23.95;;;;;;;5.21;97.79;102370.47;10423789;28;20559;-74
2022/03/16 02:52:31;;;;;;;34.17;23.65;;;;;;;5.13;97.98;102371.94;10421805;28;20083;-75
2022/03/16 02:57:32;;;;;;;33.30;25.23;;;;;;;5.11;99.54;102370.38;10421071;28;20060;-75
2022/03/16 03:02:32;;;;;;;42.05;27.70;;;;;;;5.15;98.32;102358.38;10422793;28;20037;-76
2022/03/16 03:07:33;;;;;;;40.88;29.50;;;;;;;5.06;100.00;102351.09;10421959;28;20450;-76
2022/03/16 03:12:35;;;;;;;41.45;28.48;;;;;;;5.10;100.00;102352.53;10423485;28;20372;-75
2022/03/16 03:17:35;;;;;;;40.65;28.98;;;;;;;5.05;100.00;102346.72;10421980;28;20033;-76
2022/03/16 03:22:36;;;;;;;38.67;26.95;;;;;;;5.00;100.00;102339.00;10420549;28;20377;-75
2022/03/16 03:27:36;;;;;;;43.03;29.35;;;;;;;4.97;100.00;102330.34;10422969;28;20061;-75
2022/03/16 03:32:37;;;;;;;49.00;31.17;;;;;;;4.86;100.00;102329.41;10421856;28;20091;-75
2022/03/16 03:37:37;;;;;;;41.95;29.35;;;;;;;4.81;100.00;102328.91;10422118;28;20038;-75
2022/03/16 03:42:38;;;;;;;46.15;29.33;;;;;;;4.76;100.00;102322.25;10420167;28;20050;-75
2022/03/16 03:47:38;;;;;;;37.25;25.08;;;;;;;4.75;100.00;102336.63;10420746;28;20033;-75
2022/03/16 03:52:38;;;;;;;35.42;28.27;;;;;;;4.68;100.00;102333.59;10421585;28;20029;-75
2022/03/16 03:57:39;;;;;;;40.60;28.65;;;;;;;4.63;100.00;102327.75;10420923;28;20037;-74
2022/03/16 04:02:46;;;;;;;43.15;29.58;;;;;;;4.59;100.00;102337.00;10402503;28;20044;-75
2022/03/16 04:07:48;;;;;;;48.05;34.53;;;;;;;4.58;100.00;102338.84;10420043;28;20069;-75
2022/03/16 04:12:49;;;;;;;44.97;32.13;;;;;;;4.51;100.00;102337.63;10422645;28;20078;-75
2022/03/16 04:17:50;;;;;;;49.20;32.85;;;;;;;4.56;100.00;102342.63;10435847;28;20038;-75
2022/03/16 04:22:50;;;;;;;47.05;31.80;;;;;;;4.54;100.00;102339.22;10418418;28;20045;-75
2022/03/16 04:27:50;;;;;;;39.35;28.60;;;;;;;4.57;100.00;102349.72;10419138;28;20076;-75
2022/03/16 04:32:52;;;;;;;47.40;32.40;;;;;;;4.54;100.00;102358.84;10418925;28;20392;-75
2022/03/16 04:37:52;;;;;;;46.95;31.92;;;;;;;4.57;100.00;102344.34;10419441;28;20040;-75
2022/03/16 04:42:53;;;;;;;40.40;27.60;;;;;;;4.45;100.00;102345.31;10417330;28;20048;-75
2022/03/16 04:47:53;;;;;;;40.22;29.42;;;;;;;4.50;100.00;102343.09;10418104;28;20128;-75
2022/03/16 04:52:54;;;;;;;41.22;27.50;;;;;;;4.49;100.00;102336.88;10417625;28;20041;-75
2022/03/16 04:57:54;;;;;;;29.00;20.20;;;;;;;4.48;100.00;102337.03;10419057;28;20476;-75
2022/03/16 05:02:54;;;;;;;25.90;19.13;;;;;;;4.49;100.00;102326.16;10417589;28;20125;-75
2022/03/16 05:07:55;;;;;;;25.48;19.40;;;;;;;4.51;100.00;102326.06;10418653;28;20431;-75
2022/03/16 05:12:56;;;;;;;31.30;21.98;;;;;;;4.52;100.00;102317.00;10417387;28;20038;-75
2022/03/16 05:17:56;;;;;;;44.42;26.17;;;;;;;4.53;100.00;102316.91;10418280;28;20044;-75
2022/03/16 05:22:56;;;;;;;32.42;26.42;;;;;;;4.55;100.00;102319.47;10416804;28;20042;-74
2022/03/16 05:27:57;;;;;;;25.02;18.70;;;;;;;4.53;100.00;102314.22;10417036;28;20029;-74
2022/03/16 05:33:00;;;;;;;42.28;26.95;;;;;;;4.55;100.00;102322.13;10416130;28;20037;-74
2022/03/16 05:38:02;;;;;;;36.53;24.20;;;;;;;4.48;100.00;102319.09;10430718;28;20106;-76
2022/03/16 05:43:02;;;;;;;37.38;23.48;;;;;;;4.45;100.00;102319.34;10418083;28;20072;-75
2022/03/16 05:48:03;;;;;;;25.52;20.80;;;;;;;4.47;100.00;102321.88;10417734;28;20449;-75
2022/03/16 05:53:04;;;;;;;31.52;20.90;;;;;;;4.47;100.00;102321.88;10416274;28;20033;-74
2022/03/16 05:58:04;;;;;;;37.20;28.00;;;;;;;4.51;100.00;102315.31;10398843;28;20045;-74
2022/03/16 06:03:05;;;;;;;37.97;27.85;;;;;;;4.49;100.00;102322.63;10416345;28;20060;-73
2022/03/16 06:08:05;;;;;;;36.17;28.77;;;;;;;4.55;100.00;102325.66;10415622;28;20058;-73
2022/03/16 06:13:06;;;;;;;49.30;27.40;;;;;;;4.59;100.00;102324.44;10412695;28;20128;-73
2022/03/16 06:18:06;;;;;;;29.35;24.33;;;;;;;4.63;100.00;102327.75;10415754;28;20037;-73
2022/03/16 06:23:06;;;;;;;42.33;30.20;;;;;;;4.86;100.00;102324.03;10415146;28;20095;-73
2022/03/16 06:28:07;;;;;;;42.72;31.08;;;;;;;5.09;100.00;102335.56;10415923;28;20041;-74
2022/03/16 06:33:07;;;;;;;37.97;27.60;;;;;;;5.05;100.00;102327.91;10415873;28;20488;-74
2022/03/16 06:38:08;;;;;;;32.38;23.10;;;;;;;5.36;100.00;102319.00;10416285;28;20099;-74
2022/03/16 06:43:09;;;;;;;37.65;25.35;;;;;;;5.80;100.00;102322.44;10416147;28;20033;-74
2022/03/16 06:48:09;;;;;;;36.55;26.08;;;;;;;6.33;100.00;102323.34;10414900;28;20029;-74
2022/03/16 06:53:09;;;;;;;27.95;24.10;;;;;;;6.96;99.27;102329.34;10414506;28;20049;-74
2022/03/16 06:58:10;;;;;;;36.80;25.95;;;;;;;7.46;98.03;102335.47;10414682;28;20029;-74
2022/03/16 07:03:10;;;;;;;21.98;17.65;;;;;;;7.44;96.14;102342.03;10417472;28;20037;-74
2022/03/16 07:08:13;;;;;;;26.92;22.67;;;;;;;7.25;95.09;102340.16;10422272;28;20083;-74
2022/03/16 07:13:13;;;;;;;25.88;21.17;;;;;;;7.35;94.87;102332.09;10421281;28;20026;-74
2022/03/16 07:18:14;;;;;;;28.55;19.52;;;;;;;7.35;94.45;102340.19;10424737;28;20030;-74
2022/03/16 07:23:15;;;;;;;27.08;20.30;;;;;;;7.83;91.16;102323.97;10421650;28;20033;-74
2022/03/16 07:28:16;;;;;;;23.10;18.05;;;;;;;8.05;90.14;102309.28;10419981;28;20124;-74
2022/03/16 07:33:17;;;;;;;34.80;22.98;;;;;;;8.23;89.99;102309.41;10419567;28;20037;-74
2022/03/16 07:38:19;;;;;;;22.38;16.92;;;;;;;8.66;88.40;102309.78;10420287;28;20049;-75
2022/03/16 07:43:20;;;;;;;24.45;18.42;;;;;;;9.02;85.94;102308.84;10420785;28;20038;-75
2022/03/16 07:48:20;;;;;;;19.65;17.10;;;;;;;9.10;84.31;102312.66;10436869;28;20124;-74
2022/03/16 07:53:21;;;;;;;18.83;16.42;;;;;;;9.17;82.70;102308.34;10420588;28;20036;-74
2022/03/16 07:58:21;;;;;;;26.58;18.70;;;;;;;9.06;83.81;102309.38;10420134;28;20479;-74
2022/03/16 08:03:21;;;;;;;21.55;18.05;;;;;;;8.47;84.96;102306.19;10419961;28;20096;-75
2022/03/16 08:08:22;;;;;;;34.70;17.50;;;;;;;8.50;85.49;102297.78;10419863;28;20107;-74
2022/03/16 08:13:22;;;;;;;22.85;16.25;;;;;;;8.75;84.73;102308.91;10417930;28;20045;-74
2022/03/16 08:18:23;;;;;;;24.88;14.15;;;;;;;9.32;81.02;102277.06;10419090;28;20377;-75
2022/03/16 08:23:23;;;;;;;24.40;15.77;;;;;;;10.25;78.59;102256.53;10419416;28;20048;-74
2022/03/16 08:28:25;;;;;;;15.55;13.50;;;;;;;9.92;77.38;102269.06;10434587;28;20078;-75
2022/03/16 08:33:25;;;;;;;19.95;14.13;;;;;;;9.96;78.94;102272.28;10434063;28;20494;-74
2022/03/16 08:38:25;;;;;;;23.27;15.27;;;;;;;11.37;73.33;102277.00;10417151;28;20057;-74
2022/03/16 08:43:26;;;;;;;15.63;12.57;;;;;;;11.61;70.39;102280.72;10418646;28;20045;-75
2022/03/16 08:48:26;;;;;;;17.25;13.75;;;;;;;12.03;70.43;102266.13;10418655;28;20564;-75
2022/03/16 08:53:27;;;;;;;14.82;11.50;;;;;;;12.37;68.82;102259.53;10418182;28;20120;-75
2022/03/16 08:58:27;;;;;;;13.85;10.10;;;;;;;12.63;65.28;102275.53;10418589;28;20060;-75
2022/03/16 09:03:28;;;;;;;14.63;11.30;;;;;;;12.74;65.47;102272.44;10418322;28;20041;-75
2022/03/16 09:08:28;;;;;;;15.02;10.18;;;;;;;12.83;64.94;102268.66;10418083;28;20037;-76
2022/03/16 09:13:29;;;;;;;12.05;10.70;;;;;;;13.22;63.06;102275.88;10401255;28;20122;-75
2022/03/16 09:18:30;;;;;;;15.10;10.23;;;;;;;13.47;61.58;102274.69;10417917;28;20117;-76
2022/03/16 09:23:31;;;;;;;11.20;8.68;;;;;;;13.79;60.29;102267.25;10415612;28;20379;-76
2022/03/16 09:28:32;;;;;;;9.07;8.23;;;;;;;13.97;59.06;102266.88;10417270;28;20116;-75
2022/03/16 09:33:32;;;;;;;13.60;10.52;;;;;;;12.62;62.79;102263.84;10415676;28;20397;-75
2022/03/16 09:38:32;;;;;;;14.93;10.30;;;;;;;13.12;62.82;102264.41;10416371;28;20064;-75
2022/03/16 09:43:35;;;;;;;12.13;10.43;;;;;;;13.00;62.39;102253.09;10431735;28;20131;-75
2022/03/16 09:48:36;;;;;;;13.68;9.20;;;;;;;13.32;61.37;102241.13;10414332;28;20034;-75
2022/03/16 09:53:36;;;;;;;11.20;9.25;;;;;;;13.74;61.21;102245.16;10414888;28;20037;-75
2022/03/16 09:58:37;;;;;;;16.27;11.15;;;;;;;14.18;60.00;102250.66;10415743;28;20034;-75
2022/03/16 10:03:37;;;;;;;20.55;10.13;;;;;;;14.92;57.04;102244.25;10416725;28;20044;-75
2022/03/16 10:08:38;;;;;;;10.23;9.20;;;;;;;15.38;54.77;102245.72;10416149;28;20080;-75
2022/03/16 10:13:38;;;;;;;21.20;10.75;;;;;;;14.78;57.11;102232.34;10415788;28;20037;-75
2022/03/16 10:18:38;;;;;;;10.23;7.90;;;;;;;15.27;54.65;102230.72;10415463;28;20038;-75
2022/03/16 10:23:39;;;;;;;11.07;9.98;;;;;;;15.57;55.02;102223.19;10415897;28;20057;-75
2022/03/16 10:28:40;;;;;;;11.13;8.70;;;;;;;16.03;53.31;102211.78;10415312;28;20064;-75
2022/03/16 10:33:48;;;;;;;10.80;8.63;;;;;;;15.50;54.84;102214.13;10413989;28;20067;-75
2022/03/16 10:38:58;;;;;;;10.38;9.23;;;;;;;15.24;55.06;102212.03;10416801;28;20060;-75
2022/03/16 10:49:20;;;;;;;13.82;8.05;;;;;;;16.93;51.29;102209.81;10423203;28;20424;-76
2022/03/16 10:54:20;;;;;;;8.27;7.43;;;;;;;16.66;50.67;102207.00;10422371;28;20096;-75
2022/03/16 10:59:25;;;;;;;8.88;7.63;;;;;;;15.59;54.18;102200.13;10421479;28;20033;-76
2022/03/16 11:04:26;;;;;;;10.00;7.40;;;;;;;14.75;57.20;102210.91;10404211;28;20431;-75
2022/03/16 11:09:27;;;;;;;9.82;8.23;;;;;;;14.43;57.86;102212.19;10406177;28;20029;-75
2022/03/16 11:14:29;;;;;;;10.05;8.40;;;;;;;15.46;56.67;102216.41;10422488;28;20428;-75
2022/03/16 11:19:31;;;;;;;12.13;9.35;;;;;;;15.81;54.64;102221.94;10421567;28;20060;-76
2022/03/16 11:24:34;;;;;;;11.35;8.13;;;;;;;15.11;55.57;102205.41;10420699;28;20041;-75
2022/03/16 11:29:49;;;;;;;10.10;8.15;;;;;;;14.50;58.73;102226.75;10419517;28;20037;-75
2022/03/16 11:34:58;;;;;;;11.88;9.52;;;;;;;14.56;58.75;102215.09;10420200;28;20103;-75
2022/03/16 11:40:05;;;;;;;8.90;7.68;;;;;;;14.68;58.67;102207.28;10420438;28;20060;-76
2022/03/16 11:45:43;;;;;;;11.13;8.35;;;;;;;14.62;58.85;102198.00;10422769;28;20049;-76
2022/03/16 11:51:09;;;;;;;9.63;7.90;;;;;;;14.18;60.72;102204.34;10418390;28;20495;-75
2022/03/16 11:56:17;;;;;;;8.30;7.47;;;;;;;14.23;61.41;102213.81;10421583;28;20059;-75
2022/03/16 12:01:31;;;;;;;9.45;8.30;;;;;;;14.03;60.87;102213.53;10421291;28;20040;-75
2022/03/16 12:06:54;;;;;;;10.55;7.80;;;;;;;13.78;62.05;102212.97;10420153;28;20033;-76
2022/03/16 12:17:29;;;;;;;12.57;9.52;;;;;;;13.57;64.44;102192.78;10418143;28;20473;-75
2022/03/16 12:22:32;;;;;;;9.75;7.70;;;;;;;13.56;63.53;102180.22;10420435;28;20045;-75
2022/03/16 12:32:56;;;;;;;13.60;9.55;;;;;;;13.70;64.88;102175.81;10418488;28;20457;-75
2022/03/16 12:37:57;;;;;;;9.80;8.82;;;;;;;13.63;64.87;102173.00;10423081;28;20032;-76
2022/03/16 12:42:57;;;;;;;12.23;8.70;;;;;;;13.69;65.41;102155.91;10424088;28;20072;-76
2022/03/16 12:48:12;;;;;;;13.85;8.73;;;;;;;13.61;65.75;102144.25;10418552;28;20083;-75
2022/03/16 12:53:13;;;;;;;14.23;9.48;;;;;;;13.43;66.27;102115.53;10416497;28;20598;-75
2022/03/16 12:58:13;;;;;;;14.27;9.38;;;;;;;13.54;65.91;102127.00;10418061;28;20099;-75
2022/03/16 13:03:14;;;;;;;10.40;9.30;;;;;;;13.53;66.38;102115.28;10417224;28;20033;-75
2022/03/16 13:08:17;;;;;;;18.88;10.70;;;;;;;13.51;66.66;102111.88;10417128;28;20033;-75
2022/03/16 13:13:19;;;;;;;12.20;10.13;;;;;;;13.50;66.78;102107.47;10416830;28;20037;-75
2022/03/16 13:18:38;;;;;;;14.23;9.43;;;;;;;13.64;66.14;102075.84;10417849;28;20520;-76
2022/03/16 13:23:38;;;;;;;11.15;9.23;;;;;;;13.51;66.66;102064.78;10417666;28;20033;-75
2022/03/16 13:28:39;;;;;;;13.93;9.85;;;;;;;13.54;67.18;102073.41;10416998;28;20077;-75
2022/03/16 13:33:44;;;;;;;10.93;9.82;;;;;;;13.61;66.95;102071.59;10416787;28;20038;-75
2022/03/16 13:38:47;;;;;;;11.40;9.68;;;;;;;13.78;66.53;102068.69;10415939;28;20515;-76
2022/03/16 13:43:47;;;;;;;14.27;9.70;;;;;;;13.77;66.72;102058.84;10414943;28;20052;-75
2022/03/16 13:48:49;;;;;;;15.48;10.35;;;;;;;13.78;66.46;102046.91;10415002;28;20030;-75
2022/03/16 13:53:51;;;;;;;19.98;10.48;;;;;;;13.84;67.37;102036.09;10413644;28;20466;-75
2022/03/16 13:58:53;;;;;;;13.30;10.82;;;;;;;13.84;67.33;102027.91;10414490;28;20041;-76
2022/03/16 14:04:03;;;;;;;12.10;8.32;;;;;;;13.76;67.24;102016.31;10415736;28;20034;-75
2022/03/16 14:09:13;;;;;;;11.52;9.77;;;;;;;13.72;67.88;101997.63;10416872;28;20037;-75
2022/03/16 14:14:15;;;;;;;13.90;9.77;;;;;;;13.66;68.12;101979.34;10415253;28;20034;-75
2022/03/16 14:19:30;;;;;;;12.23;9.35;;;;;;;13.62;68.63;101971.75;10415684;28;20519;-75
2022/03/16 14:24:33;;;;;;;17.58;10.48;;;;;;;13.57;69.31;101969.59;10416507;28;20528;-75
2022/03/16 14:29:33;;;;;;;13.88;9.30;;;;;;;13.41;69.41;101973.41;10430223;28;20469;-75
2022/03/16 14:34:34;;;;;;;11.27;10.18;;;;;;;13.33;70.58;101956.31;10415702;28;20037;-76
2022/03/16 14:39:34;;;;;;;15.15;12.05;;;;;;;13.47;70.61;101960.91;10415127;28;20053;-75
2022/03/16 14:44:35;;;;;;;17.52;11.57;;;;;;;13.41;69.95;101958.94;10414945;28;20477;-76
2022/03/16 14:49:35;;;;;;;11.63;9.43;;;;;;;13.34;71.27;101963.47;10413800;28;20422;-75
2022/03/16 14:54:36;;;;;;;20.27;9.48;;;;;;;13.35;70.91;101952.38;10413901;28;20091;-75
2022/03/16 14:59:36;;;;;;;20.70;9.93;;;;;;;13.29;71.80;101938.69;10413871;28;20038;-75
2022/03/16 15:04:37;;;;;;;15.38;12.50;;;;;;;13.29;71.44;101949.59;10413490;28;20053;-76
2022/03/16 15:09:38;;;;;;;12.90;9.82;;;;;;;13.33;71.02;101940.84;10415317;28;20480;-75
2022/03/16 15:14:38;;;;;;;21.48;11.10;;;;;;;13.28;71.18;101931.59;10413012;28;20028;-75
2022/03/16 15:19:39;;;;;;;11.38;10.18;;;;;;;13.13;71.58;101937.84;10414199;28;20033;-75
2022/03/16 15:24:39;;;;;;;11.02;9.50;;;;;;;12.95;72.52;101921.06;10416903;28;20029;-75
2022/03/16 15:29:40;;;;;;;14.40;10.77;;;;;;;12.75;73.59;101908.03;10422010;28;20048;-75
2022/03/16 15:34:41;;;;;;;17.92;10.38;;;;;;;12.77;73.96;101916.84;10420260;28;20120;-75
2022/03/16 15:42:38;;;;;;;13.13;9.95;;;;;;;12.77;73.91;101930.44;10421861;28;20089;-75
2022/03/16 15:45:02;;;;;;;12.30;10.82;;;;;;;12.75;73.95;101934.38;10420904;28;20056;-75
2022/03/16 15:50:05;;;;;;;15.68;11.15;;;;;;;12.79;73.62;101941.13;10419630;28;20041;-75
2022/03/16 15:55:08;;;;;;;10.38;8.70;;;;;;;12.83;73.24;101961.47;10419265;28;20033;-75
2022/03/16 16:00:08;;;;;;;18.05;11.63;;;;;;;12.78;73.59;101940.28;10420802;28;20037;-75
2022/03/16 16:05:09;;;;;;;13.27;10.13;;;;;;;12.88;73.58;101929.13;10418795;28;20171;-75
2022/03/16 16:10:12;;;;;;;15.82;10.55;;;;;;;12.88;74.09;101928.28;10418939;28;20036;-76
2022/03/16 16:15:14;;;;;;;16.42;11.23;;;;;;;12.88;73.91;101918.25;10420407;28;20086;-75
2022/03/16 16:20:22;;;;;;;15.93;10.10;;;;;;;12.77;73.69;101916.84;10420205;28;20032;-75
2022/03/16 16:25:24;;;;;;;15.20;11.48;;;;;;;12.74;74.11;101911.78;10418972;28;20045;-75
2022/03/16 16:30:26;;;;;;;19.35;10.95;;;;;;;12.75;74.14;101915.34;10419381;28;20088;-75
2022/03/16 16:35:27;;;;;;;24.02;11.48;;;;;;;12.79;73.97;101917.53;10417870;28;20432;-75
2022/03/16 16:40:28;;;;;;;14.55;10.50;;;;;;;12.79;74.06;101906.66;10417874;28;20057;-75
2022/03/16 16:45:30;;;;;;;16.88;10.35;;;;;;;12.76;74.49;101898.88;10420299;28;20033;-75
2022/03/16 16:50:31;;;;;;;11.23;8.02;;;;;;;12.69;74.72;101906.06;10401657;28;20060;-75
2022/03/16 16:55:31;;;;;;;15.00;10.80;;;;;;;12.73;74.25;101903.81;10417795;28;20026;-75
2022/03/16 17:00:32;;;;;;;17.00;10.98;;;;;;;12.65;75.08;101915.63;10417739;28;20065;-75
2022/03/16 17:05:32;;;;;;;8.90;8.02;;;;;;;12.61;74.86;101906.16;10416333;28;20103;-75
2022/03/16 17:10:36;;;;;;;10.32;9.23;;;;;;;12.54;74.91;101884.34;10416118;28;20106;-75
2022/03/16 17:15:43;;;;;;;21.42;9.85;;;;;;;12.52;75.14;101888.25;10417073;28;20088;-76
2022/03/16 17:20:43;;;;;;;11.95;9.02;;;;;;;12.50;75.35;101891.16;10416582;28;20036;-75
2022/03/16 17:25:44;;;;;;;15.30;10.43;;;;;;;12.34;76.02;101873.16;10416456;28;20120;-75
2022/03/16 17:30:49;;;;;;;11.63;10.15;;;;;;;12.26;76.59;101872.41;10433137;28;20033;-75
2022/03/16 17:35:50;;;;;;;19.90;11.13;;;;;;;12.20;76.60;101870.44;10431798;28;20392;-75
2022/03/16 17:40:53;;;;;;;15.25;9.98;;;;;;;12.10;76.98;101868.81;10417128;28;20168;-75
2022/03/16 17:45:54;;;;;;;15.52;11.13;;;;;;;12.12;76.40;101865.06;10416519;28;20384;-75
2022/03/16 17:50:57;;;;;;;20.35;10.75;;;;;;;12.13;76.74;101858.63;10415440;28;20100;-75
2022/03/16 18:01:18;;;;;;;12.98;10.35;;;;;;;12.09;76.62;101856.28;10415523;28;20033;-75
2022/03/16 18:06:19;;;;;;;16.10;10.15;;;;;;;12.07;76.61;101839.31;10417990;28;20057;-75
2022/03/16 18:16:38;;;;;;;12.30;10.88;;;;;;;11.95;77.37;101835.34;10416817;28;20029;-75
2022/03/16 18:21:39;;;;;;;13.02;9.93;;;;;;;11.93;77.30;101834.69;10416171;28;20025;-75
2022/03/16 18:26:40;;;;;;;17.50;10.55;;;;;;;11.91;77.36;101841.34;10414504;28;20542;-75
2022/03/16 18:31:41;;;;;;;9.75;8.50;;;;;;;11.93;77.11;101834.69;10417036;28;20092;-75
2022/03/16 18:36:41;;;;;;;12.35;10.05;;;;;;;11.96;76.91;101838.91;10415137;28;20029;-75
2022/03/16 18:41:45;;;;;;;13.10;8.85;;;;;;;11.96;76.68;101845.19;10415498;28;20103;-75
2022/03/16 18:46:46;;;;;;;11.30;8.65;;;;;;;11.98;76.37;101858.59;10413316;28;20038;-75
2022/03/16 18:57:07;;;;;;;13.02;9.38;;;;;;;11.93;76.51;101831.13;10414147;28;20041;-75
2022/03/16 19:02:07;;;;;;;13.93;10.73;;;;;;;11.86;76.55;101829.16;10420553;28;20036;-75
2022/03/16 19:07:08;;;;;;;13.15;10.02;;;;;;;11.82;77.07;101835.94;10422692;28;20129;-75
2022/03/16 19:17:27;;;;;;;18.52;10.35;;;;;;;11.80;76.76;101819.00;10421897;28;20037;-75
2022/03/16 19:22:28;;;;;;;11.60;10.32;;;;;;;11.77;76.66;101822.09;10420601;28;20029;-75
2022/03/16 19:27:28;;;;;;;15.93;10.35;;;;;;;11.77;77.23;101824.81;10421748;28;20488;-75
2022/03/16 19:32:28;;;;;;;14.00;9.95;;;;;;;11.79;76.86;101827.31;10420349;28;20044;-75
2022/03/16 19:37:29;;;;;;;12.50;11.25;;;;;;;11.81;77.04;101834.25;10419383;28;20172;-75
2022/03/16 19:42:30;;;;;;;14.00;9.68;;;;;;;11.85;76.80;101841.03;10435845;28;20064;-75
2022/03/16 19:47:30;;;;;;;13.23;9.85;;;;;;;11.86;76.54;101834.56;10420621;28;20037;-75
2022/03/16 19:52:34;;;;;;;15.25;8.98;;;;;;;11.88;76.59;101834.41;10420343;28;20124;-76
2022/03/16 19:57:34;;;;;;;18.83;10.75;;;;;;;11.89;76.54;101843.38;10420218;28;20033;-76
2022/03/16 20:02:35;;;;;;;17.20;10.68;;;;;;;11.89;76.69;101827.94;10420414;28;20030;-75
2022/03/16 20:07:36;;;;;;;18.08;8.70;;;;;;;11.86;76.93;101820.16;10420232;28;20108;-74
2022/03/16 20:12:37;;;;;;;13.02;10.00;;;;;;;11.84;77.32;101823.06;10419062;28;20392;-76
2022/03/16 20:17:40;;;;;;;17.98;9.60;;;;;;;11.85;77.24;101822.03;10420248;28;20038;-75
2022/03/16 20:22:41;;;;;;;13.90;9.63;;;;;;;11.85;77.62;101821.19;10418520;28;20032;-75
2022/03/16 20:27:41;;;;;;;10.95;8.68;;;;;;;11.76;78.08;101828.53;10419556;28;20049;-76
2022/03/16 20:32:42;;;;;;;14.93;10.45;;;;;;;11.80;77.97;101813.56;10419384;28;20033;-75
2022/03/16 20:37:42;;;;;;;11.38;7.97;;;;;;;11.76;78.69;101822.25;10420118;28;20065;-76
2022/03/16 20:42:43;;;;;;;12.32;8.98;;;;;;;11.75;78.40;101817.88;10419017;28;20057;-75
2022/03/16 20:47:43;;;;;;;15.68;10.10;;;;;;;11.72;78.55;101821.78;10417526;28;20045;-75
2022/03/16 20:52:44;;;;;;;9.18;8.20;;;;;;;11.74;79.11;101821.59;10419535;28;20171;-75
2022/03/16 20:57:46;;;;;;;20.52;8.88;;;;;;;11.67;79.47;101826.06;10417691;28;20033;-75
2022/03/16 21:02:46;;;;;;;16.40;9.80;;;;;;;11.63;79.19;101812.88;10417965;28;20382;-77
2022/03/16 21:07:47;;;;;;;11.80;7.68;;;;;;;11.55;80.30;101804.81;10416727;28;20034;-76
2022/03/16 21:12:47;;;;;;;12.60;9.93;;;;;;;11.54;80.19;101829.38;10418838;28;20377;-76
2022/03/16 21:17:47;;;;;;;16.13;10.52;;;;;;;11.52;80.53;101820.56;10417953;28;20026;-75
2022/03/16 21:22:49;;;;;;;18.30;10.77;;;;;;;11.51;80.87;101835.19;10417224;28;20044;-75
2022/03/16 21:27:52;;;;;;;13.43;11.23;;;;;;;11.51;80.82;101819.75;10419041;28;20515;-76
2022/03/16 21:32:53;;;;;;;22.33;10.23;;;;;;;11.54;81.04;101818.53;10420311;28;20037;-75
2022/03/16 21:37:54;;;;;;;13.70;9.70;;;;;;;11.47;81.40;101821.13;10416182;28;20072;-76
2022/03/16 21:42:54;;;;;;;21.13;11.95;;;;;;;11.49;81.29;101826.41;10420447;28;20065;-75
2022/03/16 21:47:58;;;;;;;17.30;12.88;;;;;;;11.45;81.77;101825.03;10416536;28;20037;-76
2022/03/16 21:53:00;;;;;;;14.40;10.88;;;;;;;11.47;82.08;101814.88;10417361;28;20030;-75
2022/03/16 21:58:00;;;;;;;13.00;10.50;;;;;;;11.46;82.46;101818.63;10416235;28;20033;-75
2022/03/16 22:03:01;;;;;;;13.82;11.65;;;;;;;11.39;82.56;101824.75;10414610;28;20499;-76
2022/03/16 22:08:02;;;;;;;14.77;12.35;;;;;;;11.42;82.86;101818.09;10416946;28;20034;-77
2022/03/16 22:13:03;;;;;;;16.25;11.90;;;;;;;11.37;83.02;101826.81;10414733;28;20040;-76
2022/03/16 22:18:04;;;;;;;13.18;10.90;;;;;;;11.39;83.67;101819.34;10415130;28;20044;-76
2022/03/16 22:23:05;;;;;;;11.80;9.90;;;;;;;11.39;83.67;101822.06;10431534;28;20025;-73
2022/03/16 22:28:05;;;;;;;17.20;11.82;;;;;;;11.41;83.71;101819.97;10415948;28;20041;-75
2022/03/16 22:33:06;;;;;;;18.60;12.70;;;;;;;11.45;83.66;101808.78;10414889;28;20052;-76
2022/03/16 22:38:06;;;;;;;15.43;11.35;;;;;;;11.51;83.40;101817.03;10423854;28;20060;-75
2022/03/16 22:43:07;;;;;;;16.20;12.50;;;;;;;11.46;83.83;101807.78;10422468;28;20132;-75
2022/03/16 22:48:07;;;;;;;14.13;10.60;;;;;;;11.39;84.82;101800.34;10422457;28;20041;-75
2022/03/16 22:53:07;;;;;;;19.42;14.00;;;;;;;11.39;84.64;101810.34;10421903;28;20030;-75
2022/03/16 22:58:08;;;;;;;14.60;12.57;;;;;;;11.34;85.47;101805.47;10423718;28;20140;-75
2022/03/16 23:03:08;;;;;;;18.40;13.40;;;;;;;11.34;85.32;101801.91;10422935;28;20095;-75
2022/03/16 23:08:09;;;;;;;18.00;12.35;;;;;;;11.33;85.52;101792.94;10423052;28;20033;-74
2022/03/16 23:13:10;;;;;;;15.85;11.88;;;;;;;11.30;86.52;101797.88;10421976;28;20477;-75
2022/03/16 23:18:11;;;;;;;22.08;15.52;;;;;;;11.31;87.23;101796.84;10421063;28;20197;-75
2022/03/16 23:23:11;;;;;;;15.75;13.20;;;;;;;11.26;88.13;101808.22;10422070;28;20042;-74